Time;durP1;ratioP1;P1;durP2;ratioP2;P2;SDS_P1;SDS_P2;PMS_P1;PMS_P2;Temp;Humidity;BMP_temperature;BMP_pressure;BME280_temperature;BME280_humidity;BME280_pressure;Samples;Min_cycle;Max_cycle;Signal;HPM_P1;HPM_P2
2023/07/28 00:00:44;;;;;;;2.85;1.58;;;;;;;;;;4327919;32;317359;-81
2023/07/28 00:03:11;;;;;;;2.75;1.30;;;;;;;;;;4336548;32;316740;-81
2023/07/28 00:05:38;;;;;;;2.40;1.62;;;;;;;;;;4328602;32;317109;-84
2023/07/28 00:08:05;;;;;;;2.10;1.10;;;;;;;;;;4338202;32;317406;-82
2023/07/28 00:10:31;;;;;;;2.25;1.35;;;;;;;;;;4328400;32;317528;-82
2023/07/28 00:12:58;;;;;;;1.55;1.12;;;;;;;;;;4336708;32;316664;-82
2023/07/28 00:15:26;;;;;;;2.25;1.27;;;;;;;;;;4324717;32;319118;-82
2023/07/28 00:17:53;;;;;;;4.57;1.90;;;;;;;;;;4336599;32;317156;-82
2023/07/28 00:20:20;;;;;;;1.45;1.25;;;;;;;;;;4338082;32;317573;-81
2023/07/28 00:22:46;;;;;;;2.42;1.30;;;;;;;;;;4327936;32;317680;-81
2023/07/28 00:25:13;;;;;;;1.30;1.20;;;;;;;;;;4336915;32;317440;-81
2023/07/28 00:27:40;;;;;;;3.28;1.35;;;;;;;;;;4327671;32;338311;-81
2023/07/28 00:30:07;;;;;;;1.85;1.20;;;;;;;;;;4358934;32;317354;-81
2023/07/28 00:32:35;;;;;;;2.10;1.48;;;;;;;;;;4356673;32;317192;-81
2023/07/28 00:35:02;;;;;;;2.25;1.20;;;;;;;;;;4363375;32;317599;-81
2023/07/28 00:37:29;;;;;;;1.77;1.45;;;;;;;;;;4341600;32;317057;-81
2023/07/28 00:39:56;;;;;;;1.90;1.55;;;;;;;;;;4352655;32;317257;-81
2023/07/28 00:42:23;;;;;;;1.58;1.30;;;;;;;;;;4352672;32;316680;-84
2023/07/28 00:44:49;;;;;;;2.55;1.77;;;;;;;;;;4340084;32;416299;-83
2023/07/28 00:47:16;;;;;;;2.10;1.20;;;;;;;;;;4351253;32;316505;-84
2023/07/28 00:49:44;;;;;;;2.15;1.40;;;;;;;;;;4341947;32;351845;-83
2023/07/28 00:52:11;;;;;;;1.42;1.20;;;;;;;;;;4351387;32;317181;-82
2023/07/28 00:54:38;;;;;;;1.60;1.50;;;;;;;;;;4342900;32;316610;-83
2023/07/28 00:57:05;;;;;;;2.45;1.35;;;;;;;;;;4354853;32;316809;-83
2023/07/28 00:59:32;;;;;;;2.08;1.25;;;;;;;;;;4344386;32;316680;-85
2023/07/28 01:01:59;;;;;;;2.80;1.65;;;;;;;;;;4353878;32;327169;-84
2023/07/28 01:04:26;;;;;;;2.20;1.40;;;;;;;;;;4343310;32;337614;-84
2023/07/28 01:07:11;;;;;;;3.25;1.58;;;;;;;;;;4355308;32;317360;-84
2023/07/28 01:09:47;;;;;;;1.67;1.02;;;;;;;;;;4345684;32;317392;-85
2023/07/28 01:12:14;;;;;;;2.28;1.40;;;;;;;;;;4353850;32;317082;-84
2023/07/28 01:14:41;;;;;;;17.83;1.90;;;;;;;;;;4345610;32;316723;-84
2023/07/28 01:17:07;;;;;;;1.77;1.37;;;;;;;;;;4358148;32;318381;-84
2023/07/28 01:19:34;;;;;;;3.80;1.58;;;;;;;;;;4361364;32;317608;-84
2023/07/28 01:22:15;;;;;;;2.25;1.35;;;;;;;;;;4368334;32;317367;-83
2023/07/28 01:24:51;;;;;;;2.25;1.65;;;;;;;;;;4357945;32;316007;-86
2023/07/28 01:27:20;;;;;;;2.95;1.52;;;;;;;;;;4362924;32;316986;-86
2023/07/28 01:29:47;;;;;;;2.37;1.40;;;;;;;;;;4345978;32;316563;-83
2023/07/28 01:32:15;;;;;;;6.05;1.45;;;;;;;;;;4353513;32;316455;-83
2023/07/28 01:34:42;;;;;;;2.62;1.30;;;;;;;;;;4345070;32;317547;-83
2023/07/28 01:37:08;;;;;;;2.28;1.52;;;;;;;;;;4354439;32;316542;-83
2023/07/28 01:39:35;;;;;;;3.75;1.67;;;;;;;;;;4343828;32;316654;-83
2023/07/28 01:42:02;;;;;;;2.72;1.50;;;;;;;;;;4353373;32;316827;-81
2023/07/28 01:44:30;;;;;;;5.47;1.73;;;;;;;;;;4344952;32;316558;-83
2023/07/28 01:46:57;;;;;;;2.47;1.83;;;;;;;;;;4354580;32;316596;-83
2023/07/28 01:49:24;;;;;;;2.97;1.42;;;;;;;;;;4354556;32;316635;-83
2023/07/28 01:51:50;;;;;;;5.32;1.90;;;;;;;;;;4340567;32;417783;-83
2023/07/28 01:54:17;;;;;;;5.62;1.52;;;;;;;;;;4352936;32;316637;-83
2023/07/28 01:56:44;;;;;;;2.00;1.60;;;;;;;;;;4344792;32;316866;-83
2023/07/28 01:59:10;;;;;;;2.28;1.83;;;;;;;;;;4354254;32;316882;-82
2023/07/28 02:01:38;;;;;;;1.92;1.65;;;;;;;;;;4343363;32;316390;-83
2023/07/28 02:04:05;;;;;;;2.58;1.80;;;;;;;;;;4353327;32;317154;-82
2023/07/28 02:06:32;;;;;;;2.28;1.60;;;;;;;;;;4344256;32;317510;-82
2023/07/28 02:08:59;;;;;;;3.60;1.65;;;;;;;;;;4353057;32;317085;-83
2023/07/28 02:11:26;;;;;;;3.65;1.95;;;;;;;;;;4344580;32;317255;-83
2023/07/28 02:13:52;;;;;;;2.80;1.48;;;;;;;;;;4354168;32;316915;-83
2023/07/28 02:16:19;;;;;;;2.60;1.65;;;;;;;;;;4352334;32;316983;-83
2023/07/28 02:18:47;;;;;;;3.62;1.80;;;;;;;;;;4344721;32;317731;-83
2023/07/28 02:21:14;;;;;;;2.72;1.92;;;;;;;;;;4354281;32;317931;-83
2023/07/28 02:23:40;;;;;;;6.60;2.37;;;;;;;;;;4343531;32;317204;-83
2023/07/28 02:26:07;;;;;;;5.55;3.12;;;;;;;;;;4352757;32;316652;-82
2023/07/28 02:28:34;;;;;;;3.33;1.98;;;;;;;;;;4344097;32;317454;-82
2023/07/28 02:31:00;;;;;;;3.70;1.87;;;;;;;;;;4363834;32;317065;-82
2023/07/28 02:33:29;;;;;;;3.47;1.75;;;;;;;;;;4357870;32;317229;-83
2023/07/28 02:35:57;;;;;;;2.80;1.80;;;;;;;;;;4359992;32;316546;-83
2023/07/28 02:38:24;;;;;;;9.93;2.28;;;;;;;;;;4341433;32;316426;-82
2023/07/28 02:40:51;;;;;;;3.05;1.98;;;;;;;;;;4338320;32;416071;-82
2023/07/28 02:43:17;;;;;;;3.58;2.20;;;;;;;;;;4337671;32;316839;-83
2023/07/28 02:45:44;;;;;;;3.50;1.77;;;;;;;;;;4329013;32;316523;-83
2023/07/28 02:48:11;;;;;;;4.75;2.17;;;;;;;;;;4339122;32;317288;-83
2023/07/28 02:50:38;;;;;;;3.67;1.85;;;;;;;;;;4328904;32;317220;-83
2023/07/28 02:53:06;;;;;;;2.80;1.62;;;;;;;;;;4338779;32;317086;-82
2023/07/28 02:55:33;;;;;;;4.30;1.80;;;;;;;;;;4329124;32;317198;-82
2023/07/28 02:57:59;;;;;;;4.95;1.48;;;;;;;;;;4338839;32;316531;-82
2023/07/28 03:00:26;;;;;;;2.12;1.65;;;;;;;;;;4327006;32;316785;-83
2023/07/28 03:02:53;;;;;;;5.62;1.80;;;;;;;;;;4338631;32;316517;-82
2023/07/28 03:05:19;;;;;;;2.53;1.95;;;;;;;;;;4338249;32;317368;-83
2023/07/28 03:07:48;;;;;;;2.78;1.83;;;;;;;;;;4327050;32;334701;-82
2023/07/28 03:10:17;;;;;;;3.75;1.85;;;;;;;;;;4338631;32;317477;-82
2023/07/28 03:12:43;;;;;;;4.00;1.92;;;;;;;;;;4327529;32;317250;-83
2023/07/28 03:15:10;;;;;;;2.20;1.60;;;;;;;;;;4338032;32;321219;-82
2023/07/28 03:17:37;;;;;;;1.87;1.48;;;;;;;;;;4326935;32;336716;-83
2023/07/28 03:20:05;;;;;;;2.03;1.67;;;;;;;;;;4338584;32;317397;-82
2023/07/28 03:22:31;;;;;;;4.60;1.87;;;;;;;;;;4327678;32;317088;-83
2023/07/28 03:24:58;;;;;;;1.92;1.73;;;;;;;;;;4337137;32;356599;-83
2023/07/28 03:27:26;;;;;;;3.72;2.00;;;;;;;;;;4327487;32;317316;-84
2023/07/28 03:29:53;;;;;;;4.37;1.73;;;;;;;;;;4356275;32;317577;-83
2023/07/28 03:32:20;;;;;;;3.67;1.70;;;;;;;;;;4368255;32;317184;-87
2023/07/28 03:34:46;;;;;;;3.55;1.77;;;;;;;;;;4355853;32;317021;-85
2023/07/28 03:37:13;;;;;;;4.45;1.90;;;;;;;;;;4352079;32;317092;-84
2023/07/28 03:39:40;;;;;;;4.97;2.30;;;;;;;;;;4343495;32;316492;-84
2023/07/28 03:42:08;;;;;;;4.35;2.08;;;;;;;;;;4352303;32;318473;-84
2023/07/28 03:44:37;;;;;;;8.63;3.00;;;;;;;;;;4342615;32;317711;-87
2023/07/28 03:47:04;;;;;;;4.47;2.00;;;;;;;;;;4340823;32;317642;-84
2023/07/28 03:49:31;;;;;;;3.17;1.90;;;;;;;;;;4352084;32;317416;-82
2023/07/28 03:51:57;;;;;;;4.85;2.28;;;;;;;;;;4351712;32;317122;-83
2023/07/28 03:54:24;;;;;;;3.10;1.77;;;;;;;;;;4340371;32;416125;-83
2023/07/28 03:56:51;;;;;;;3.03;2.08;;;;;;;;;;4352812;32;317612;-82
2023/07/28 03:59:18;;;;;;;7.90;2.37;;;;;;;;;;4341263;32;316703;-82
2023/07/28 04:01:46;;;;;;;2.87;1.70;;;;;;;;;;4350351;32;357578;-81
2023/07/28 04:04:13;;;;;;;4.03;2.33;;;;;;;;;;4342189;32;317520;-84
2023/07/28 04:06:44;;;;;;;4.45;2.12;;;;;;;;;;4341856;32;317038;-84
2023/07/28 04:09:13;;;;;;;6.32;2.67;;;;;;;;;;4328450;32;317414;-84
2023/07/28 04:11:40;;;;;;;6.18;2.72;;;;;;;;;;4348400;32;317485;-84
2023/07/28 04:14:07;;;;;;;9.25;3.10;;;;;;;;;;4342007;32;316856;-83
2023/07/28 04:16:34;;;;;;;12.57;2.62;;;;;;;;;;4351380;32;316898;-83
2023/07/28 04:19:02;;;;;;;8.85;3.47;;;;;;;;;;4341340;32;328153;-84
2023/07/28 04:21:29;;;;;;;5.75;2.95;;;;;;;;;;4351784;32;317304;-84
2023/07/28 04:23:56;;;;;;;5.53;3.12;;;;;;;;;;4352539;32;317484;-86
2023/07/28 04:26:24;;;;;;;11.15;4.95;;;;;;;;;;4343128;32;317299;-83
2023/07/28 04:28:51;;;;;;;12.30;4.82;;;;;;;;;;4351320;32;318099;-83
2023/07/28 04:31:18;;;;;;;13.48;4.85;;;;;;;;;;4343656;32;318312;-85
2023/07/28 04:33:44;;;;;;;11.35;4.30;;;;;;;;;;4353630;32;353873;-83
2023/07/28 04:36:12;;;;;;;22.40;5.12;;;;;;;;;;4345784;32;317808;-85
2023/07/28 04:38:39;;;;;;;17.58;4.45;;;;;;;;;;4355363;32;317893;-85
2023/07/28 04:41:06;;;;;;;8.63;4.45;;;;;;;;;;4345645;32;317666;-82
2023/07/28 04:43:33;;;;;;;12.68;3.47;;;;;;;;;;4354158;32;317212;-83
2023/07/28 04:45:59;;;;;;;12.15;3.40;;;;;;;;;;4343956;32;364137;-84
2023/07/28 04:48:26;;;;;;;16.52;4.40;;;;;;;;;;4355667;32;318401;-81
2023/07/28 04:50:53;;;;;;;10.20;4.07;;;;;;;;;;4354011;32;317874;-83
2023/07/28 04:53:21;;;;;;;8.48;3.28;;;;;;;;;;4344195;32;318400;-85
2023/07/28 04:55:47;;;;;;;12.32;3.40;;;;;;;;;;4353823;32;317360;-81
2023/07/28 04:58:14;;;;;;;8.93;3.92;;;;;;;;;;4345456;32;317788;-81
2023/07/28 05:00:41;;;;;;;9.35;3.92;;;;;;;;;;4355106;32;317769;-82
2023/07/28 05:03:08;;;;;;;5.93;3.20;;;;;;;;;;4344307;32;317191;-82
2023/07/28 05:05:35;;;;;;;6.87;3.37;;;;;;;;;;4355254;32;317442;-82
2023/07/28 05:08:01;;;;;;;6.80;3.33;;;;;;;;;;4343834;32;317189;-82
2023/07/28 05:10:29;;;;;;;6.55;3.28;;;;;;;;;;4355254;32;317337;-81
2023/07/28 05:12:56;;;;;;;6.95;3.30;;;;;;;;;;4355246;32;317293;-82
2023/07/28 05:15:23;;;;;;;6.85;3.80;;;;;;;;;;4344761;32;316701;-85
2023/07/28 05:17:50;;;;;;;10.77;4.00;;;;;;;;;;4356014;32;317412;-85
2023/07/28 05:20:17;;;;;;;9.73;4.18;;;;;;;;;;4338595;32;317710;-83
2023/07/28 05:22:44;;;;;;;5.95;2.87;;;;;;;;;;4353326;32;317649;-84
2023/07/28 05:25:10;;;;;;;5.70;2.70;;;;;;;;;;4333430;32;316954;-82
2023/07/28 05:27:39;;;;;;;8.80;4.30;;;;;;;;;;4339605;32;317394;-82
2023/07/28 05:30:07;;;;;;;12.48;3.20;;;;;;;;;;4349048;32;350127;-83
2023/07/28 05:32:34;;;;;;;7.28;3.12;;;;;;;;;;4380789;32;317424;-82
2023/07/28 05:35:00;;;;;;;8.27;2.60;;;;;;;;;;4365783;32;317365;-82
2023/07/28 05:37:27;;;;;;;7.60;3.50;;;;;;;;;;4382509;32;317253;-81
2023/07/28 05:39:54;;;;;;;4.30;2.15;;;;;;;;;;4380025;32;317104;-82
2023/07/28 05:42:21;;;;;;;8.52;3.30;;;;;;;;;;4361181;32;317236;-81
2023/07/28 05:44:49;;;;;;;7.28;3.42;;;;;;;;;;4356404;32;317263;-82
2023/07/28 05:47:16;;;;;;;20.05;5.62;;;;;;;;;;4343750;32;317182;-82
2023/07/28 05:49:43;;;;;;;3.70;2.87;;;;;;;;;;4349986;32;318404;-82
2023/07/28 05:52:09;;;;;;;19.27;4.90;;;;;;;;;;4332080;32;317195;-81
2023/07/28 05:54:36;;;;;;;15.57;5.05;;;;;;;;;;4352552;32;317702;-82
2023/07/28 05:57:03;;;;;;;11.15;4.10;;;;;;;;;;4341059;32;317684;-82
2023/07/28 05:59:30;;;;;;;10.73;3.22;;;;;;;;;;4336378;32;317843;-82
2023/07/28 06:01:58;;;;;;;4.43;2.70;;;;;;;;;;4337702;32;318374;-82
2023/07/28 06:04:25;;;;;;;7.72;2.45;;;;;;;;;;4338165;32;416665;-82
2023/07/28 06:06:52;;;;;;;3.55;2.42;;;;;;;;;;4339026;32;335435;-82
2023/07/28 06:09:18;;;;;;;4.47;2.85;;;;;;;;;;4329312;32;317252;-82
2023/07/28 06:11:45;;;;;;;5.78;3.08;;;;;;;;;;4349992;32;317338;-82
2023/07/28 06:14:12;;;;;;;10.77;3.50;;;;;;;;;;4344263;32;317174;-82
2023/07/28 06:16:39;;;;;;;3.78;2.35;;;;;;;;;;4352779;32;318180;-82
2023/07/28 06:19:08;;;;;;;12.10;2.33;;;;;;;;;;4341992;32;316832;-82
2023/07/28 06:21:35;;;;;;;4.03;2.55;;;;;;;;;;4347974;32;359153;-80
2023/07/28 06:24:01;;;;;;;3.30;1.92;;;;;;;;;;4341711;32;317431;-86
2023/07/28 06:26:28;;;;;;;4.15;2.40;;;;;;;;;;4341893;32;316666;-83
2023/07/28 06:28:55;;;;;;;4.47;2.72;;;;;;;;;;4337922;32;316739;-82
2023/07/28 06:31:21;;;;;;;6.22;2.75;;;;;;;;;;4345619;32;316532;-85
2023/07/28 06:33:48;;;;;;;5.00;2.35;;;;;;;;;;4341271;32;317366;-83
2023/07/28 06:36:17;;;;;;;3.62;2.62;;;;;;;;;;4323681;32;317362;-82
2023/07/28 06:38:48;;;;;;;5.72;2.37;;;;;;;;;;4334390;32;317408;-82
2023/07/28 06:41:14;;;;;;;2.97;2.08;;;;;;;;;;4324981;32;317805;-82
2023/07/28 06:43:41;;;;;;;2.55;2.05;;;;;;;;;;4335666;32;316984;-82
2023/07/28 06:46:08;;;;;;;6.22;2.53;;;;;;;;;;4325144;32;316622;-82
2023/07/28 06:48:34;;;;;;;4.85;2.78;;;;;;;;;;4335431;32;316688;-83
2023/07/28 06:51:01;;;;;;;3.53;2.72;;;;;;;;;;4329066;32;317245;-82
2023/07/28 06:53:29;;;;;;;3.53;2.05;;;;;;;;;;4338937;32;316945;-82
2023/07/28 06:55:56;;;;;;;5.25;2.45;;;;;;;;;;4353208;32;317151;-82
2023/07/28 06:58:23;;;;;;;3.05;2.15;;;;;;;;;;4342704;32;317059;-82
2023/07/28 07:00:50;;;;;;;5.78;2.70;;;;;;;;;;4352294;32;317170;-82
2023/07/28 07:03:17;;;;;;;4.68;2.17;;;;;;;;;;4342767;32;317147;-82
2023/07/28 07:05:44;;;;;;;7.07;2.50;;;;;;;;;;4352852;32;317387;-82
2023/07/28 07:08:11;;;;;;;3.60;2.42;;;;;;;;;;4343052;32;317232;-82
2023/07/28 07:10:40;;;;;;;7.93;2.75;;;;;;;;;;4353674;32;317191;-82
2023/07/28 07:13:06;;;;;;;5.05;2.60;;;;;;;;;;4343695;32;317247;-82
2023/07/28 07:15:35;;;;;;;2.75;2.08;;;;;;;;;;4352243;32;317366;-82
2023/07/28 07:18:02;;;;;;;4.72;2.53;;;;;;;;;;4339350;32;335249;-82
2023/07/28 07:20:29;;;;;;;4.60;1.80;;;;;;;;;;4351649;32;352411;-82
2023/07/28 07:22:55;;;;;;;3.10;1.90;;;;;;;;;;4353592;32;317425;-82
2023/07/28 07:25:22;;;;;;;4.07;2.25;;;;;;;;;;4342720;32;317373;-82
2023/07/28 07:27:50;;;;;;;5.65;2.28;;;;;;;;;;4351976;32;317076;-82
2023/07/28 07:30:17;;;;;;;4.57;2.90;;;;;;;;;;4342410;32;317260;-82
2023/07/28 07:32:44;;;;;;;12.15;2.62;;;;;;;;;;4353400;32;317301;-82
2023/07/28 07:35:12;;;;;;;6.00;2.37;;;;;;;;;;4342553;32;318159;-82
2023/07/28 07:37:38;;;;;;;8.15;2.22;;;;;;;;;;4353380;32;316544;-82
2023/07/28 07:40:07;;;;;;;2.47;2.08;;;;;;;;;;4343472;32;317057;-82
2023/07/28 07:42:42;;;;;;;3.75;2.37;;;;;;;;;;4351448;32;339954;-82
2023/07/28 07:45:11;;;;;;;3.92;2.50;;;;;;;;;;4341735;32;317525;-81
2023/07/28 07:47:40;;;;;;;3.97;2.10;;;;;;;;;;4353019;32;316800;-82
2023/07/28 07:50:08;;;;;;;4.60;2.20;;;;;;;;;;4343501;32;317198;-82
2023/07/28 07:52:35;;;;;;;6.78;2.67;;;;;;;;;;4353335;32;316597;-83
2023/07/28 07:55:02;;;;;;;4.95;1.92;;;;;;;;;;4342829;32;317708;-84
2023/07/28 07:57:29;;;;;;;2.80;1.83;;;;;;;;;;4352907;32;317245;-81
2023/07/28 07:59:57;;;;;;;5.78;2.62;;;;;;;;;;4351657;32;316689;-81
2023/07/28 08:02:25;;;;;;;9.20;3.53;;;;;;;;;;4339578;32;417699;-81
2023/07/28 08:04:53;;;;;;;2.62;2.37;;;;;;;;;;4353224;32;317546;-81
2023/07/28 08:07:20;;;;;;;4.00;1.87;;;;;;;;;;4346633;32;317438;-81
2023/07/28 08:09:47;;;;;;;3.25;2.15;;;;;;;;;;4355144;32;317502;-81
2023/07/28 08:12:15;;;;;;;3.97;2.20;;;;;;;;;;4344844;32;316498;-82
2023/07/28 08:14:42;;;;;;;7.37;2.47;;;;;;;;;;4354705;32;317239;-81
2023/07/28 08:17:10;;;;;;;3.17;2.60;;;;;;;;;;4344958;32;317443;-82
2023/07/28 08:19:38;;;;;;;4.35;3.90;;;;;;;;;;4356171;32;316551;-81
2023/07/28 08:22:05;;;;;;;3.87;2.45;;;;;;;;;;4346242;32;316912;-82
2023/07/28 08:24:33;;;;;;;2.90;1.98;;;;;;;;;;4355785;32;317529;-80
2023/07/28 08:26:59;;;;;;;5.18;2.22;;;;;;;;;;4345645;32;316919;-82
2023/07/28 08:29:26;;;;;;;6.05;2.25;;;;;;;;;;4355386;32;317420;-81
2023/07/28 08:31:53;;;;;;;10.57;3.00;;;;;;;;;;4354219;32;316842;-81
2023/07/28 08:34:20;;;;;;;3.53;2.65;;;;;;;;;;4345148;32;318293;-81
2023/07/28 08:36:48;;;;;;;3.03;2.20;;;;;;;;;;4355639;32;317663;-82
2023/07/28 08:39:15;;;;;;;5.32;2.78;;;;;;;;;;4346311;32;316776;-82
2023/07/28 08:41:42;;;;;;;3.80;2.47;;;;;;;;;;4358677;32;317267;-82
2023/07/28 08:44:09;;;;;;;3.12;2.10;;;;;;;;;;4344789;32;343263;-81
2023/07/28 08:46:37;;;;;;;3.87;2.72;;;;;;;;;;4354251;32;317127;-82
2023/07/28 08:49:04;;;;;;;3.95;2.22;;;;;;;;;;4345542;32;316725;-82
2023/07/28 08:51:30;;;;;;;5.07;3.45;;;;;;;;;;4355334;32;317192;-82
2023/07/28 08:53:58;;;;;;;2.70;1.83;;;;;;;;;;4354288;32;317356;-82
2023/07/28 08:56:26;;;;;;;7.35;3.10;;;;;;;;;;4341902;32;416253;-82
2023/07/28 08:58:59;;;;;;;5.28;3.22;;;;;;;;;;4354804;32;317227;-81
2023/07/28 09:01:25;;;;;;;7.72;3.25;;;;;;;;;;4342777;32;416423;-81
2023/07/28 09:03:52;;;;;;;4.82;2.87;;;;;;;;;;4354288;32;317635;-82
2023/07/28 09:06:19;;;;;;;6.37;3.58;;;;;;;;;;4344320;32;317028;-82
2023/07/28 09:08:46;;;;;;;3.47;1.90;;;;;;;;;;4353765;32;317042;-81
2023/07/28 09:11:14;;;;;;;4.33;2.43;;;;;;;;;;4344266;32;321285;-82
2023/07/28 09:13:42;;;;;;;3.47;2.55;;;;;;;;;;4354153;32;317434;-81
2023/07/28 09:16:18;;;;;;;10.90;3.67;;;;;;;;;;4344416;32;316847;-81
2023/07/28 09:18:45;;;;;;;5.22;3.05;;;;;;;;;;4354699;32;318611;-81
2023/07/28 09:21:18;;;;;;;4.62;2.55;;;;;;;;;;4345304;32;317437;-81
2023/07/28 09:23:45;;;;;;;4.12;2.47;;;;;;;;;;4355167;32;317436;-81
2023/07/28 09:26:14;;;;;;;5.18;2.83;;;;;;;;;;4344117;32;317567;-82
2023/07/28 09:28:41;;;;;;;3.72;2.60;;;;;;;;;;4353458;32;317747;-82
2023/07/28 09:31:10;;;;;;;4.07;2.58;;;;;;;;;;4344877;32;316721;-81
2023/07/28 09:33:37;;;;;;;10.02;3.72;;;;;;;;;;4354850;32;317173;-81
2023/07/28 09:36:11;;;;;;;3.55;2.20;;;;;;;;;;4343863;32;317814;-82
2023/07/28 09:38:40;;;;;;;2.90;2.05;;;;;;;;;;4353505;32;317522;-81
2023/07/28 09:41:10;;;;;;;5.03;2.87;;;;;;;;;;4343213;32;344734;-81
2023/07/28 09:43:38;;;;;;;9.18;2.85;;;;;;;;;;4354354;32;317437;-82
2023/07/28 09:46:06;;;;;;;3.25;1.50;;;;;;;;;;4343829;32;316824;-82
2023/07/28 09:48:33;;;;;;;2.78;2.15;;;;;;;;;;4354561;32;317594;-81
2023/07/28 09:51:04;;;;;;;1.80;1.65;;;;;;;;;;4353356;32;208507;-83
2023/07/28 09:53:36;;;;;;;3.60;1.85;;;;;;;;;;4357739;32;316731;-81
2023/07/28 09:56:03;;;;;;;1.83;1.48;;;;;;;;;;4339582;32;317456;-82
2023/07/28 09:58:34;;;;;;;5.50;1.90;;;;;;;;;;4350670;32;317103;-81
2023/07/28 10:01:05;;;;;;;2.30;1.80;;;;;;;;;;4335151;32;316759;-82
2023/07/28 10:03:33;;;;;;;4.62;1.60;;;;;;;;;;4343687;32;334071;-80
2023/07/28 10:06:01;;;;;;;5.95;1.83;;;;;;;;;;4330123;32;317287;-84
2023/07/28 10:08:28;;;;;;;2.25;1.60;;;;;;;;;;4339690;32;317184;-82
2023/07/28 10:10:56;;;;;;;4.10;2.10;;;;;;;;;;4338685;32;317540;-81
2023/07/28 10:13:23;;;;;;;2.58;2.10;;;;;;;;;;4329430;32;317490;-82
2023/07/28 10:15:51;;;;;;;1.87;1.60;;;;;;;;;;4339341;32;316807;-82
2023/07/28 10:18:22;;;;;;;5.43;2.00;;;;;;;;;;4327808;32;316603;-81
2023/07/28 10:20:49;;;;;;;2.85;2.03;;;;;;;;;;4339234;32;317589;-81
2023/07/28 10:23:18;;;;;;;3.17;2.03;;;;;;;;;;4329452;32;317091;-81
2023/07/28 10:25:46;;;;;;;2.08;1.60;;;;;;;;;;4338864;32;338582;-82
2023/07/28 10:28:31;;;;;;;3.50;2.15;;;;;;;;;;4328772;32;316734;-82
2023/07/28 10:30:58;;;;;;;3.58;1.92;;;;;;;;;;4339185;32;317265;-81
2023/07/28 10:33:35;;;;;;;4.50;2.22;;;;;;;;;;4337203;32;418414;-82
2023/07/28 10:36:14;;;;;;;3.08;2.17;;;;;;;;;;4329326;32;317184;-82
2023/07/28 10:38:43;;;;;;;3.00;1.80;;;;;;;;;;4339131;32;317023;-81
2023/07/28 10:41:15;;;;;;;2.95;2.10;;;;;;;;;;4329320;32;317372;-81
2023/07/28 10:43:43;;;;;;;1.92;1.75;;;;;;;;;;4338650;32;317219;-81
2023/07/28 10:46:12;;;;;;;2.33;1.98;;;;;;;;;;4329010;32;317193;-81
2023/07/28 10:48:43;;;;;;;5.03;2.30;;;;;;;;;;4338820;32;317293;-82
2023/07/28 10:51:11;;;;;;;2.92;1.87;;;;;;;;;;4329330;32;317854;-82
2023/07/28 10:53:38;;;;;;;3.45;2.03;;;;;;;;;;4338526;32;316790;-81
2023/07/28 10:56:08;;;;;;;3.80;1.75;;;;;;;;;;4329686;32;317278;-82
2023/07/28 10:58:35;;;;;;;11.68;2.47;;;;;;;;;;4353327;32;316853;-81
2023/07/28 11:01:02;;;;;;;6.10;3.25;;;;;;;;;;4343956;32;318574;-82
2023/07/28 11:03:29;;;;;;;2.20;1.80;;;;;;;;;;4353526;32;317281;-82
2023/07/28 11:05:58;;;;;;;3.30;1.70;;;;;;;;;;4352234;32;316583;-82
2023/07/28 11:08:26;;;;;;;5.00;2.08;;;;;;;;;;4340965;32;415063;-82
2023/07/28 11:10:52;;;;;;;3.90;2.28;;;;;;;;;;4352725;32;317530;-82
2023/07/28 11:13:19;;;;;;;4.60;2.10;;;;;;;;;;4342311;32;317485;-82
2023/07/28 11:15:46;;;;;;;6.20;2.37;;;;;;;;;;4352378;32;317310;-81
2023/07/28 11:18:16;;;;;;;2.13;1.93;;;;;;;;;;4342310;32;317200;-82
2023/07/28 11:20:42;;;;;;;1.85;1.60;;;;;;;;;;4353341;32;316657;-82
2023/07/28 11:23:10;;;;;;;2.53;2.03;;;;;;;;;;4342383;32;317275;-82
2023/07/28 11:25:38;;;;;;;3.28;2.17;;;;;;;;;;4352491;32;317140;-82
2023/07/28 11:28:05;;;;;;;2.75;1.98;;;;;;;;;;4343403;32;316960;-82
2023/07/28 11:30:33;;;;;;;2.37;1.75;;;;;;;;;;4351802;32;316693;-82
2023/07/28 11:33:00;;;;;;;2.45;1.80;;;;;;;;;;4341787;32;317545;-83
2023/07/28 11:35:27;;;;;;;3.20;2.30;;;;;;;;;;4353474;32;316721;-81
2023/07/28 11:37:54;;;;;;;4.00;2.15;;;;;;;;;;4353528;32;317317;-82
2023/07/28 11:40:25;;;;;;;2.95;1.90;;;;;;;;;;4342831;32;317547;-82
2023/07/28 11:42:54;;;;;;;4.45;2.00;;;;;;;;;;4353164;32;316708;-82
2023/07/28 11:45:22;;;;;;;4.28;2.10;;;;;;;;;;4343455;32;317163;-82
2023/07/28 11:47:59;;;;;;;3.70;2.20;;;;;;;;;;4353017;32;316746;-82
2023/07/28 11:50:27;;;;;;;3.25;1.77;;;;;;;;;;4339116;32;416326;-81
2023/07/28 11:52:54;;;;;;;3.87;2.20;;;;;;;;;;4352073;32;317251;-81
2023/07/28 11:55:24;;;;;;;2.47;2.12;;;;;;;;;;4342136;32;317389;-81
2023/07/28 11:57:52;;;;;;;4.10;2.50;;;;;;;;;;4347598;32;317485;-81
2023/07/28 12:00:26;;;;;;;2.55;1.85;;;;;;;;;;4328605;32;317215;-81
2023/07/28 12:03:01;;;;;;;3.25;1.98;;;;;;;;;;4337184;32;316518;-82
2023/07/28 12:05:28;;;;;;;7.43;2.30;;;;;;;;;;4335408;32;416449;-81
2023/07/28 12:07:55;;;;;;;3.30;2.17;;;;;;;;;;4338047;32;316503;-82
2023/07/28 12:10:22;;;;;;;2.05;1.80;;;;;;;;;;4328669;32;317389;-82
2023/07/28 12:12:50;;;;;;;2.33;1.70;;;;;;;;;;4336901;32;317082;-81
2023/07/28 12:15:23;;;;;;;3.55;1.95;;;;;;;;;;4327283;32;317209;-81
2023/07/28 12:18:10;;;;;;;4.97;2.03;;;;;;;;;;4336593;32;317385;-81
2023/07/28 12:20:38;;;;;;;2.17;1.52;;;;;;;;;;4331565;32;416509;-81
2023/07/28 12:23:05;;;;;;;3.28;1.60;;;;;;;;;;4326993;32;317167;-81
2023/07/28 12:25:32;;;;;;;2.10;1.70;;;;;;;;;;4336505;32;317117;-81
2023/07/28 12:28:01;;;;;;;2.20;1.60;;;;;;;;;;4336752;32;317540;-82
2023/07/28 12:30:28;;;;;;;4.07;1.92;;;;;;;;;;4340094;32;417812;-82
2023/07/28 12:32:54;;;;;;;2.58;1.95;;;;;;;;;;4351525;32;317221;-81
2023/07/28 12:35:23;;;;;;;2.12;1.92;;;;;;;;;;4342017;32;317117;-81
2023/07/28 12:37:51;;;;;;;2.30;1.73;;;;;;;;;;4353052;32;316323;-81
2023/07/28 12:40:18;;;;;;;3.47;2.08;;;;;;;;;;4343443;32;317126;-81
2023/07/28 12:42:45;;;;;;;7.07;1.92;;;;;;;;;;4351527;32;316930;-81
2023/07/28 12:45:14;;;;;;;5.45;1.90;;;;;;;;;;4341968;32;317112;-81
2023/07/28 12:47:41;;;;;;;5.78;2.17;;;;;;;;;;4352552;32;317382;-81
2023/07/28 12:50:08;;;;;;;5.00;2.05;;;;;;;;;;4342868;32;317699;-81
2023/07/28 12:52:36;;;;;;;3.35;2.00;;;;;;;;;;4352601;32;346813;-81
2023/07/28 12:55:03;;;;;;;3.00;1.73;;;;;;;;;;4344303;32;317476;-81
2023/07/28 12:57:30;;;;;;;3.83;2.20;;;;;;;;;;4354840;32;316717;-80
2023/07/28 12:59:56;;;;;;;3.10;2.33;;;;;;;;;;4354243;32;316492;-81
2023/07/28 13:02:25;;;;;;;3.22;2.17;;;;;;;;;;4344370;32;317109;-80
2023/07/28 13:04:52;;;;;;;3.40;2.17;;;;;;;;;;4355333;32;317191;-80
2023/07/28 13:07:18;;;;;;;3.78;2.62;;;;;;;;;;4345319;32;317052;-80
2023/07/28 13:09:45;;;;;;;4.12;2.78;;;;;;;;;;4354068;32;317198;-80
2023/07/28 13:12:12;;;;;;;2.28;1.52;;;;;;;;;;4345399;32;317299;-80
2023/07/28 13:14:38;;;;;;;2.97;1.90;;;;;;;;;;4355391;32;317238;-80
2023/07/28 13:17:06;;;;;;;2.85;1.58;;;;;;;;;;4343944;32;317449;-81
2023/07/28 13:19:34;;;;;;;2.53;1.73;;;;;;;;;;4355161;32;317023;-80
2023/07/28 13:22:02;;;;;;;3.62;2.17;;;;;;;;;;4341520;32;316933;-82
2023/07/28 13:24:28;;;;;;;3.37;2.50;;;;;;;;;;4340280;32;317499;-80
2023/07/28 13:26:55;;;;;;;2.10;1.85;;;;;;;;;;4338997;32;317385;-81
2023/07/28 13:29:22;;;;;;;2.65;1.52;;;;;;;;;;4330103;32;334446;-80
2023/07/28 13:31:49;;;;;;;3.03;2.20;;;;;;;;;;4340124;32;317205;-81
2023/07/28 13:34:15;;;;;;;3.05;1.90;;;;;;;;;;4329174;32;317299;-80
2023/07/28 13:36:44;;;;;;;3.20;1.95;;;;;;;;;;4340011;32;317472;-81
2023/07/28 13:39:10;;;;;;;4.57;2.08;;;;;;;;;;4328635;32;316508;-86
2023/07/28 13:41:38;;;;;;;3.15;1.95;;;;;;;;;;4336866;32;317373;-86
2023/07/28 13:44:05;;;;;;;2.78;1.70;;;;;;;;;;4326058;32;316633;-85
2023/07/28 13:46:31;;;;;;;2.80;1.95;;;;;;;;;;4335087;32;316607;-85
2023/07/28 13:48:58;;;;;;;9.57;2.22;;;;;;;;;;4336787;32;316935;-87
2023/07/28 13:51:25;;;;;;;3.22;2.37;;;;;;;;;;4328290;32;316487;-87
2023/07/28 13:53:53;;;;;;;2.45;1.90;;;;;;;;;;4338812;32;317730;-87
2023/07/28 13:56:19;;;;;;;2.30;2.00;;;;;;;;;;4345068;32;316570;-87
2023/07/28 13:58:46;;;;;;;3.35;2.00;;;;;;;;;;4354669;32;317272;-87
2023/07/28 14:01:13;;;;;;;3.03;2.20;;;;;;;;;;4339837;32;317311;-87
2023/07/28 14:03:40;;;;;;;4.35;2.12;;;;;;;;;;4353449;32;316695;-87
2023/07/28 14:06:08;;;;;;;4.25;1.95;;;;;;;;;;4358394;32;316581;-87
2023/07/28 14:08:35;;;;;;;14.93;2.22;;;;;;;;;;4366852;32;316575;-84
2023/07/28 14:11:03;;;;;;;2.10;1.90;;;;;;;;;;4359574;32;318777;-85
2023/07/28 14:13:31;;;;;;;3.15;2.22;;;;;;;;;;4362115;32;317377;-88
2023/07/28 14:15:58;;;;;;;2.75;1.90;;;;;;;;;;4351114;32;316509;-87
2023/07/28 14:18:25;;;;;;;4.15;2.40;;;;;;;;;;4339943;32;317056;-88
2023/07/28 14:20:51;;;;;;;2.45;1.80;;;;;;;;;;4338732;32;316613;-87
2023/07/28 14:23:23;;;;;;;4.40;2.03;;;;;;;;;;4329030;32;317488;-86
2023/07/28 14:25:49;;;;;;;2.75;1.60;;;;;;;;;;4338044;32;317646;-86
2023/07/28 14:28:18;;;;;;;2.37;1.83;;;;;;;;;;4338699;32;317221;-87
2023/07/28 14:30:46;;;;;;;1.42;1.33;;;;;;;;;;4370661;32;315404;-87